EKAH/AAR METAR and TAF weather

Enter ICAO airport designator
Station Type Date Time Source
EKAH METAR 2022/01/18 06:50 UTC NOAA

EKAH 180650Z AUTO 28007KT 9999 NCD 04/04 Q1031


Station Type Date Time Source
EKAH Decoded METAR 2022/01/18 06:50 UTC NOAA

Tirstrup, Denmark (EKAH) 56-18N 010-37E 25M
Jan 18, 2022 - 01:50 AM EST / 2022.01.18 0650 UTC
Wind: from the W (280 degrees) at 8 MPH (7 KT):0
Visibility: greater than 7 mile(s):0
Temperature: 39 F (4 C)
Dew Point: 39 F (4 C)
Relative Humidity: 100%
Pressure (altimeter): 30.45 in. Hg (1031 hPa)
ob: EKAH 180650Z AUTO 28007KT 9999 NCD 04/04 Q1031
cycle: 7

Station Type Date Time Source
EKAH TAF 2022/01/18 06:59 UTC NOAA

TAF
AMD EKAH 180654Z 1806/1906 28010KT 9999 SCT020
TEMPO 1806/1906 4000 BR BKN008

Example: see airport list